createdAt,value
2018-05-09T00:00:02.526Z,13.6
2018-05-09T00:15:02.771Z,13.3
2018-05-09T00:30:03.163Z,13.2
2018-05-09T00:45:02.495Z,13.3
2018-05-09T01:00:02.817Z,12.9
2018-05-09T01:15:03.089Z,12.6
2018-05-09T01:30:02.498Z,12.2
2018-05-09T01:45:02.776Z,12.1
2018-05-09T02:00:03.010Z,11.6
2018-05-09T02:15:02.404Z,11.7
2018-05-09T02:30:02.793Z,11.6
2018-05-09T02:45:02.995Z,11.1
2018-05-09T03:00:02.421Z,11.1
2018-05-09T03:15:02.677Z,10.6
2018-05-09T03:30:02.988Z,10.5
2018-05-09T03:45:02.395Z,10.3
2018-05-09T04:00:02.727Z,10.2
2018-05-09T04:15:02.963Z,10.1
2018-05-09T04:30:02.393Z,10.3
2018-05-09T04:45:02.679Z,10.7
2018-05-09T05:00:02.960Z,11
2018-05-09T05:15:02.274Z,11.4
2018-05-09T05:30:02.696Z,11.9
2018-05-09T05:45:02.933Z,12.4
2018-05-09T06:00:02.407Z,12.9
2018-05-09T06:15:02.705Z,13.4
2018-05-09T06:30:03.251Z,13.8
2018-05-09T06:45:02.562Z,13.9
2018-05-09T07:00:03.121Z,14.3
2018-05-09T07:15:02.552Z,14.8
2018-05-09T07:30:02.882Z,14.8
2018-05-09T07:45:03.257Z,15.2
2018-05-09T08:00:02.616Z,16.5
2018-05-09T08:15:02.992Z,17.5
2018-05-09T08:30:02.391Z,18.8
2018-05-09T08:45:02.668Z,19.2
2018-05-09T09:00:02.983Z,20.1
2018-05-09T09:15:02.332Z,20.1
2018-05-09T09:30:02.739Z,19.6
2018-05-09T09:45:02.985Z,19.8
2018-05-09T10:00:02.322Z,19.9
2018-05-09T10:15:02.590Z,19.9
2018-05-09T10:30:02.898Z,19.6
2018-05-09T10:45:03.246Z,20.8
2018-05-09T11:00:02.572Z,22.9
2018-05-09T11:15:02.875Z,24.4
2018-05-09T11:30:03.196Z,25.3
2018-05-09T11:45:02.588Z,24.7
2018-05-09T12:00:02.991Z,24.8
2018-05-09T12:15:02.322Z,25.5
2018-05-09T12:30:02.611Z,24.4
2018-05-09T12:45:03.106Z,24.4
2018-05-09T13:00:02.432Z,25.2
2018-05-09T13:15:02.809Z,25.6
2018-05-09T13:30:03.136Z,24.6
2018-05-09T13:45:02.413Z,24.2
2018-05-09T14:00:02.693Z,23.9
2018-05-09T14:15:02.898Z,22.9
2018-05-09T14:30:02.257Z,25.5
2018-05-09T14:45:02.547Z,26
2018-05-09T15:00:02.781Z,23.9
2018-05-09T15:15:03.012Z,22.1
2018-05-09T15:30:02.415Z,21.7
2018-05-09T15:45:02.747Z,21.6
2018-05-09T16:00:02.983Z,21.2
2018-05-09T16:15:02.434Z,20.9
2018-05-09T16:30:02.768Z,21.1
2018-05-09T16:45:02.971Z,20.7
2018-05-09T17:00:02.344Z,20.6
2018-05-09T17:15:02.716Z,19.8
2018-05-09T17:30:03.034Z,19.3
2018-05-09T17:45:02.340Z,18.6
2018-05-09T18:00:02.681Z,17.9
2018-05-09T18:15:02.969Z,17.8
2018-05-09T18:30:02.348Z,17
2018-05-09T18:45:02.677Z,17.3
2018-05-09T19:00:02.878Z,17.2
2018-05-09T19:15:03.120Z,16.6
2018-05-09T19:30:03.158Z,16.2
2018-05-09T19:45:03.802Z,15.5
2018-05-09T20:00:03.168Z,15.2
2018-05-09T20:15:02.432Z,15
2018-05-09T20:30:02.737Z,14.8
2018-05-09T20:45:03.102Z,14.7
2018-05-09T21:00:02.391Z,14.4
2018-05-09T21:15:02.665Z,14
2018-05-09T21:30:03.041Z,13.7
2018-05-09T21:45:02.391Z,13.5
2018-05-09T22:00:02.710Z,13.5
2018-05-09T22:15:02.910Z,13.1
2018-05-09T22:30:02.294Z,13
2018-05-09T22:45:02.593Z,12.8
2018-05-09T23:00:02.879Z,12.6
2018-05-09T23:15:03.102Z,12.2
2018-05-09T23:30:02.547Z,12.4
2018-05-09T23:45:02.845Z,12.1
